YSSY Airport Information

Runway Information
Runway 07 Length 8300 ft width 148 ft
Elevation 16 ft Threshold 0 ft Heading 74
Runway 25 Length 8300 ft Width 148 ft
Elevation 20 ft Threshold 324 ft Heading 254
Runway 16L Length 7999 ft width 148 ft
Elevation 16 ft Threshold 758 ft Heading 168
Runway 34R Length 7999 ft Width 148 ft
Elevation 13 ft Threshold 125 ft Heading 348
Runway 16R Length 12999 ft width 148 ft
Elevation 8 ft Threshold 279 ft Heading 168
Runway 34L Length 12999 ft Width 148 ft
Elevation 14 ft Threshold 0 ft Heading 348
Airport Frequencies
Type APP Name APP Frequency 135.1 MHZ
Type ATIS Name ATIS Frequency 126.25 MHZ
Type CLD Name CLNC DEL Frequency 133.8 MHZ
Type DEP Name DEP Frequency 123 MHZ
Type GND Name GND Frequency 121.7 MHZ
Type OPS Name RAAF AIR O Frequency 1123.5 MHZ
Type TWR Name TWR Frequency 120.5 MHZ
Airport Navaids
Type NDB Name Glenfield Frequency 428 KHZ
Type VOR-DME Name Sydney Frequency 112100 KHZ
Airport Weather Information & NOTAM
ADDS - METARS form results

(0354 UTC 30 November 2021)
Data provider http://aviationweather.gov/metar/data/
 
METAR text: YSSY 300349Z 14008KT 3000 +DZ BKN005 BKN008 BKN012 19/19 Q1016
Conditions at: YSSY (SYDNEY INTL AIRP, AU) observed 0349 UTC 30 November 2021
Temperature: 19.0°C (66°F)
Dewpoint: 19.0°C (66°F) [RH = 100%]
Pressure (altimeter): 30.00 inches Hg (1016.0 mb)
Winds: from the SE (140 degrees) at 9 MPH (8 knots; 4.1 m/s)
Visibility: 1.86 miles (2.99 km)
Ceiling: 500 feet AGL
Clouds: broken clouds at 500 feet AGL
broken clouds at 800 feet AGL
broken clouds at 1200 feet AGL
Weather: +DZ  (heavy drizzle)

METAR text: YSSY 300330Z 15008KT 2500 R16L/1200V1700N +DZ SCT003 BKN007 BKN012 19/18 Q1017
Conditions at: YSSY (SYDNEY INTL AIRP, AU) observed 0330 UTC 30 November 2021
Temperature: 19.0°C (66°F)
Dewpoint: 18.0°C (64°F) [RH = 94%]
Pressure (altimeter): 30.03 inches Hg (1017.0 mb)
Winds: from the SSE (150 degrees) at 9 MPH (8 knots; 4.1 m/s)
Visibility: 1.55 miles (2.49 km)
Ceiling: 700 feet AGL
Clouds: scattered clouds at 300 feet AGL
broken clouds at 700 feet AGL
broken clouds at 1200 feet AGL
Weather: +DZ  (heavy drizzle)

METAR text: YSSY 300327Z 15008KT 2500 +DZ VCSH SCT005 BKN007 BKN015 19/18 Q1017
Conditions at: YSSY (SYDNEY INTL AIRP, AU) observed 0327 UTC 30 November 2021
Temperature: 19.0°C (66°F)
Dewpoint: 18.0°C (64°F) [RH = 94%]
Pressure (altimeter): 30.03 inches Hg (1017.0 mb)
Winds: from the SSE (150 degrees) at 9 MPH (8 knots; 4.1 m/s)
Visibility: 1.55 miles (2.49 km)
Ceiling: 700 feet AGL
Clouds: scattered clouds at 500 feet AGL
broken clouds at 700 feet AGL
broken clouds at 1500 feet AGL
Weather: +DZ VCSH  (heavy drizzle, showers in vicinity)

METAR text: YSSY 300317Z 15007KT 2500 +DZ VCSH SCT004 BKN008 BKN015 19/18 Q1017
Conditions at: YSSY (SYDNEY INTL AIRP, AU) observed 0317 UTC 30 November 2021
Temperature: 19.0°C (66°F)
Dewpoint: 18.0°C (64°F) [RH = 94%]
Pressure (altimeter): 30.03 inches Hg (1017.0 mb)
Winds: from the SSE (150 degrees) at 8 MPH (7 knots; 3.6 m/s)
Visibility: 1.55 miles (2.49 km)
Ceiling: 800 feet AGL
Clouds: scattered clouds at 400 feet AGL
broken clouds at 800 feet AGL
broken clouds at 1500 feet AGL
Weather: +DZ VCSH  (heavy drizzle, showers in vicinity)

METAR text: YSSY 300300Z 15008KT 3000 -SHRA BKN006 BKN011 BKN020 19/18 Q1017
Conditions at: YSSY (SYDNEY INTL AIRP, AU) observed 0300 UTC 30 November 2021
Temperature: 19.0°C (66°F)
Dewpoint: 18.0°C (64°F) [RH = 94%]
Pressure (altimeter): 30.03 inches Hg (1017.0 mb)
Winds: from the SSE (150 degrees) at 9 MPH (8 knots; 4.1 m/s)
Visibility: 1.86 miles (2.99 km)
Ceiling: 600 feet AGL
Clouds: broken clouds at 600 feet AGL
broken clouds at 1100 feet AGL
broken clouds at 2000 feet AGL
Weather: -SHRA  (light rain showers)

METAR text: YSSY 300256Z 15008KT 4000 +DZ VCSH SCT005 BKN011 BKN018 19/17 Q1017
Conditions at: YSSY (SYDNEY INTL AIRP, AU) observed 0256 UTC 30 November 2021
Temperature: 19.0°C (66°F)
Dewpoint: 17.0°C (63°F) [RH = 88%]
Pressure (altimeter): 30.03 inches Hg (1017.0 mb)
Winds: from the SSE (150 degrees) at 9 MPH (8 knots; 4.1 m/s)
Visibility: 2.49 miles (4.01 km)
Ceiling: 1100 feet AGL
Clouds: scattered clouds at 500 feet AGL
broken clouds at 1100 feet AGL
broken clouds at 1800 feet AGL
Weather: +DZ VCSH  (heavy drizzle, showers in vicinity)

Forecast for: AMD
Text: TAF AMD YSSY 300306Z 3003/0106 13008KT 9999 SCT007 BKN018
Forecast period: 0300 to 0400 UTC 30 November 2021
Forecast type: FROM: standard forecast or significant change
Winds: from the SE (130 degrees) at 9 MPH (8 knots; 4.1 m/s)
Visibility: 6 or more miles (10+ km)
Ceiling: 1800 feet AGL
Clouds: scattered clouds at 700 feet AGL
broken clouds at 1800 feet AGL
Weather: no significant weather forecast for this period
Text: BECMG 3004/3006 06013KT 9999 SCT010 BKN020
Forecast period: 0400 to 1200 UTC 30 November 2021
Forecast type: BECOMING: Conditions expected to become as follows by 0600 UTC 30 November 2021
Winds: from the ENE (60 degrees) at 15 MPH (13 knots; 6.7 m/s)
Visibility: 6 or more miles (10+ km)
Ceiling: 2000 feet AGL
Clouds: scattered clouds at 1000 feet AGL
broken clouds at 2000 feet AGL
Weather: no significant weather forecast for this period
Text: FM301200 06007KT 9999 SCT010 BKN020
Forecast period: 1200 to 1800 UTC 30 November 2021
Forecast type: FROM: standard forecast or significant change
Winds: from the ENE (60 degrees) at 8 MPH (7 knots; 3.6 m/s)
Visibility: 6 or more miles (10+ km)
Ceiling: 2000 feet AGL
Clouds: scattered clouds at 1000 feet AGL
broken clouds at 2000 feet AGL
Weather: no significant weather forecast for this period
Text: FM301800 08007KT 9999 -SHRA SCT009 BKN015
Forecast period: 1800 UTC 30 November 2021 to 0200 UTC 01 December 2021
Forecast type: FROM: standard forecast or significant change
Winds: from the E (80 degrees) at 8 MPH (7 knots; 3.6 m/s)
Visibility: 6 or more miles (10+ km)
Ceiling: 1500 feet AGL
Clouds: scattered clouds at 900 feet AGL
broken clouds at 1500 feet AGL
Weather: -SHRA  (light rain showers)
Text: FM010200 06012KT 9999 -SHRA SCT012 BKN020
Forecast period: 0200 to 0600 UTC 01 December 2021
Forecast type: FROM: standard forecast or significant change
Winds: from the ENE (60 degrees) at 14 MPH (12 knots; 6.2 m/s)
Visibility: 6 or more miles (10+ km)
Ceiling: 2000 feet AGL
Clouds: scattered clouds at 1200 feet AGL
broken clouds at 2000 feet AGL
Weather: -SHRA  (light rain showers)
Text: TEMPO 3003/3006 3000 SHRA BKN007 INTER 3021/0106 3000 SHRA BKN010
Forecast period: 0300 to 0600 UTC 30 November 2021
Forecast type: TEMPORARY: The following changes expected for less than half the time period
Visibility: 1.86 miles (2.99 km)
Ceiling: 700 feet AGL
Clouds: broken clouds at 700 feet AGL
Weather: SHRA  (rain showers)
Text:
Forecast period: 2100 UTC 30 November 2021 to 0600 UTC 01 December 2021
Forecast type: TEMPORARY: The following changes expected for less than half the time period
Visibility: 1.86 miles (2.99 km)
Ceiling: 1000 feet AGL
Clouds: broken clouds at 1000 feet AGL
Weather: SHRA  (rain showers)